Time;durP1;ratioP1;P1;durP2;ratioP2;P2;SDS_P1;SDS_P2;PMS_P1;PMS_P2;Temp;Humidity;BMP_temperature;BMP_pressure;BME280_temperature;BME280_humidity;BME280_pressure;Samples;Min_cycle;Max_cycle;Signal;HPM_P1;HPM_P2
2023/10/21 00:01:29;;;;;;;;;2.67;2.67;;;;;15.94;100.00;98007.34;4948260;28;46266;-86
2023/10/21 00:03:54;;;;;;;;;3.33;3.00;;;;;16.05;100.00;98034.44;4956864;28;45804;-86
2023/10/21 00:06:20;;;;;;;;;3.00;1.33;;;;;16.05;100.00;98037.19;4955193;28;45780;-86
2023/10/21 00:08:48;;;;;;;;;1.00;1.00;;;;;15.87;100.00;97993.97;4954458;28;45410;-86
2023/10/21 00:11:13;;;;;;;;;4.00;2.67;;;;;16.13;100.00;98032.06;4980645;28;45453;-85
2023/10/21 00:13:39;;;;;;;;;2.00;2.00;;;;;16.21;100.00;98037.66;4979639;28;45493;-87
2023/10/21 00:16:05;;;;;;;;;2.00;2.00;;;;;16.18;100.00;98038.28;4948162;28;45965;-83
2023/10/21 00:18:30;;;;;;;;;2.00;2.00;;;;;16.25;100.00;98054.44;4952998;28;45975;-83
2023/10/21 00:20:56;;;;;;;;;3.00;2.00;;;;;16.23;100.00;98048.41;4974228;28;45735;-84
2023/10/21 00:23:22;;;;;;;;;2.00;2.00;;;;;16.08;100.00;98029.41;4962200;28;45414;-85
2023/10/21 00:25:48;;;;;;;;;2.00;2.00;;;;;16.19;100.00;98050.16;4977419;28;45512;-83
2023/10/21 00:28:14;;;;;;;;;2.67;2.00;;;;;16.18;100.00;98065.94;4952771;28;45918;-83
2023/10/21 00:30:41;;;;;;;;;0.00;0.00;;;;;16.09;100.00;98061.44;4950729;28;47042;-82
2023/10/21 00:33:06;;;;;;;;;2.00;0.00;;;;;16.18;100.00;98087.22;4976001;28;45520;-82
2023/10/21 00:35:32;;;;;;;;;0.00;0.00;;;;;16.12;100.00;98088.47;4984569;28;45425;-87
2023/10/21 00:37:58;;;;;;;;;0.00;0.00;;;;;15.91;100.00;98082.59;4966433;28;46034;-86
2023/10/21 00:40:23;;;;;;;;;0.67;0.00;;;;;15.66;100.00;98057.94;4962161;28;45568;-81
2023/10/21 00:42:49;;;;;;;;;0.00;0.00;;;;;15.94;100.00;98127.00;4978814;28;45405;-83
2023/10/21 00:45:15;;;;;;;;;1.00;0.00;;;;;15.78;100.00;98117.38;4958307;28;45420;-82
2023/10/21 00:47:41;;;;;;;;;1.00;0.00;;;;;15.81;100.00;98125.91;4958129;28;46718;-83
2023/10/21 00:50:07;;;;;;;;;0.00;0.00;;;;;15.31;100.00;98070.50;4990229;28;45170;-85
2023/10/21 00:52:44;;;;;;;;;0.00;0.00;;;;;15.68;100.00;98137.75;4975146;28;45067;-85
2023/10/21 00:55:11;;;;;;;;;1.00;0.00;;;;;15.67;100.00;98145.22;4970473;28;45575;-86
2023/10/21 00:57:39;;;;;;;;;0.00;0.00;;;;;15.69;100.00;98159.53;4979750;28;45748;-87
2023/10/21 01:00:10;;;;;;;;;0.00;0.00;;;;;15.67;100.00;98161.81;4980680;28;47134;-88
2023/10/21 01:02:43;;;;;;;;;1.00;0.00;;;;;15.49;100.00;98144.19;4977134;28;45809;-87
2023/10/21 01:05:09;;;;;;;;;0.00;0.00;;;;;15.40;100.00;98134.16;4991415;28;44901;-87
2023/10/21 01:07:35;;;;;;;;;0.00;0.00;;;;;15.48;100.00;98152.78;4984616;28;45929;-87
2023/10/21 01:10:04;;;;;;;;;2.00;0.00;;;;;15.45;100.00;98159.72;4989276;28;46687;-87
2023/10/21 01:12:30;;;;;;;;;0.00;0.00;;;;;15.65;100.00;98193.63;4962831;28;45135;-88
2023/10/21 01:14:58;;;;;;;;;0.00;0.00;;;;;15.63;100.00;98193.09;4966135;28;45760;-88
2023/10/21 01:17:30;;;;;;;;;0.00;0.00;;;;;15.62;100.00;98197.00;4965675;28;45510;-83
2023/10/21 01:19:59;;;;;;;;;0.00;0.00;;;;;15.47;100.00;98181.53;4971095;28;47159;-82
2023/10/21 01:22:26;;;;;;;;;1.00;0.00;;;;;15.46;100.00;98179.88;4958987;28;45421;-82
2023/10/21 01:24:51;;;;;;;;;0.00;0.00;;;;;15.59;100.00;98217.75;4959062;28;45547;-83
2023/10/21 01:27:17;;;;;;;;;0.00;0.00;;;;;15.59;100.00;98220.50;4950063;28;46069;-82
2023/10/21 01:29:42;;;;;;;;;0.00;0.00;;;;;15.47;100.00;98200.84;4971427;28;45818;-81
2023/10/21 01:32:08;;;;;;;;;0.00;0.00;;;;;15.56;100.00;98228.59;4956009;28;45938;-83
2023/10/21 01:34:36;;;;;;;;;0.00;0.00;;;;;15.49;100.00;98228.97;4965232;28;45442;-83
2023/10/21 01:37:01;;;;;;;;;1.33;0.00;;;;;15.50;100.00;98233.41;4974407;28;45470;-87
2023/10/21 01:39:27;;;;;;;;;0.00;0.00;;;;;15.59;100.00;98248.13;4975387;28;45621;-82
2023/10/21 01:41:52;;;;;;;;;1.00;0.00;;;;;15.59;100.00;98247.34;4971344;28;45766;-83
2023/10/21 01:44:19;;;;;;;;;0.00;0.00;;;;;15.57;100.00;98255.91;4975720;28;45480;-84
2023/10/21 01:46:44;;;;;;;;;0.00;0.00;;;;;15.45;100.00;98231.53;4954324;28;46158;-84
2023/10/21 01:49:10;;;;;;;;;0.00;0.00;;;;;15.48;100.00;98247.50;4958586;28;45427;-84
2023/10/21 01:51:35;;;;;;;;;0.33;0.00;;;;;15.54;100.00;98251.00;4955235;28;46200;-82
2023/10/21 01:54:01;;;;;;;;;0.00;0.00;;;;;15.36;100.00;98242.47;4978885;28;45481;-82
2023/10/21 01:56:26;;;;;;;;;0.00;0.00;;;;;15.33;100.00;98233.97;4965662;28;45931;-87
2023/10/21 01:58:52;;;;;;;;;0.00;0.00;;;;;15.23;100.00;98229.44;4963339;28;46070;-84
2023/10/21 02:01:17;;;;;;;;;0.67;0.00;;;;;15.40;100.00;98266.72;4979721;28;45962;-86
2023/10/21 02:03:43;;;;;;;;;0.00;0.00;;;;;15.09;100.00;98214.75;4960927;28;45810;-86
2023/10/21 02:06:09;;;;;;;;;1.33;0.00;;;;;15.37;100.00;98265.38;4960552;28;45757;-86
2023/10/21 02:08:35;;;;;;;;;0.00;0.00;;;;;15.48;100.00;98275.13;4975657;28;46298;-85
2023/10/21 02:11:00;;;;;;;;;1.00;0.00;;;;;15.49;100.00;98287.00;4958007;28;44790;-85
2023/10/21 02:13:26;;;;;;;;;0.00;0.00;;;;;15.54;100.00;98286.91;4973435;28;45499;-83
2023/10/21 02:15:52;;;;;;;;;0.00;0.00;;;;;15.51;100.00;98291.09;4973949;28;45734;-83
2023/10/21 02:18:17;;;;;;;;;0.00;0.00;;;;;15.31;100.00;98272.94;4946170;28;48779;-84
2023/10/21 02:20:44;;;;;;;;;0.00;0.00;;;;;15.35;100.00;98293.28;4959674;28;45534;-84
2023/10/21 02:23:10;;;;;;;;;0.00;0.00;;;;;15.42;100.00;98303.97;4963661;28;45429;-86
2023/10/21 02:25:35;;;;;;;;;0.00;0.00;;;;;15.24;100.00;98289.06;4955596;28;47483;-84
2023/10/21 02:28:04;;;;;;;;;1.00;0.00;;;;;15.19;100.00;98294.66;4975978;28;47205;-82
2023/10/21 02:30:29;;;;;;;;;0.00;0.00;;;;;15.35;100.00;98314.56;4981517;28;45560;-85
2023/10/21 02:32:55;;;;;;;;;1.67;1.00;;;;;15.36;100.00;98322.53;4986159;28;45492;-86
2023/10/21 02:35:21;;;;;;;;;0.00;0.00;;;;;15.38;100.00;98330.53;4961531;28;45720;-83
2023/10/21 02:37:47;;;;;;;;;0.00;0.00;;;;;15.23;100.00;98314.22;4978887;28;45625;-87
2023/10/21 02:40:15;;;;;;;;;0.00;0.00;;;;;15.24;100.00;98319.44;4968809;28;45562;-84
2023/10/21 02:42:42;;;;;;;;;1.00;0.00;;;;;15.08;100.00;98318.84;4970794;28;45567;-83
2023/10/21 02:45:08;;;;;;;;;0.00;0.00;;;;;15.05;100.00;98332.41;4972677;28;46076;-82
2023/10/21 02:47:35;;;;;;;;;0.00;0.00;;;;;14.74;100.00;98299.72;4965301;28;46406;-84
2023/10/21 02:50:01;;;;;;;;;0.00;0.00;;;;;14.82;100.00;98318.38;4953566;28;45962;-84
2023/10/21 02:52:27;;;;;;;;;2.00;0.00;;;;;14.92;100.00;98339.50;4972940;28;45549;-86
2023/10/21 02:54:53;;;;;;;;;0.00;0.00;;;;;15.02;100.00;98346.81;4955734;28;45827;-87
2023/10/21 02:57:19;;;;;;;;;0.00;0.00;;;;;14.97;100.00;98339.41;4956667;28;48196;-85
2023/10/21 02:59:45;;;;;;;;;1.00;0.00;;;;;14.88;100.00;98322.72;4952534;28;45555;-86
2023/10/21 03:02:13;;;;;;;;;0.00;0.00;;;;;14.80;100.00;98318.66;4951757;28;46024;-86
2023/10/21 03:04:39;;;;;;;;;0.00;0.00;;;;;14.76;100.00;98327.81;4960733;28;46293;-87
2023/10/21 03:07:05;;;;;;;;;0.67;0.00;;;;;14.91;100.00;98355.22;4970403;28;45560;-82
2023/10/21 03:09:31;;;;;;;;;1.00;0.00;;;;;14.93;100.00;98364.03;4955056;28;45760;-81
2023/10/21 03:11:56;;;;;;;;;1.00;0.00;;;;;15.00;100.00;98374.72;4976350;28;45895;-82
2023/10/21 03:14:22;;;;;;;;;0.00;0.00;;;;;14.61;100.00;98317.81;4948380;28;45914;-82
2023/10/21 03:16:48;;;;;;;;;1.00;0.00;;;;;14.92;100.00;98380.88;4964963;28;45458;-82
2023/10/21 03:19:14;;;;;;;;;0.00;0.00;;;;;14.96;100.00;98376.41;4955989;28;45479;-82
2023/10/21 03:21:39;;;;;;;;;0.00;0.00;;;;;15.00;100.00;98391.28;4980896;28;45791;-86
2023/10/21 03:24:05;;;;;;;;;0.00;0.00;;;;;14.92;100.00;98381.69;4980661;28;45478;-82
2023/10/21 03:26:31;;;;;;;;;0.00;0.00;;;;;14.87;100.00;98380.97;4972869;28;46412;-83
2023/10/21 03:28:57;;;;;;;;;1.67;0.00;;;;;14.74;100.00;98371.47;4979326;28;45508;-83
2023/10/21 03:31:22;;;;;;;;;1.67;0.00;;;;;14.79;100.00;98379.66;4968763;28;45949;-82
2023/10/21 03:33:51;;;;;;;;;0.00;0.00;;;;;14.90;100.00;98403.25;4967348;28;46129;-86
2023/10/21 03:36:18;;;;;;;;;0.33;0.00;;;;;14.53;100.00;98363.38;4967460;28;48082;-87
2023/10/21 03:38:44;;;;;;;;;1.00;0.00;;;;;14.45;100.00;98364.84;4954307;28;45544;-84
2023/10/21 03:41:11;;;;;;;;;0.67;0.00;;;;;14.63;100.00;98415.72;4952015;28;45825;-84
2023/10/21 03:43:37;;;;;;;;;3.33;0.00;;;;;14.58;100.00;98425.94;4961353;28;46322;-84
2023/10/21 03:46:05;;;;;;;;;2.00;0.00;;;;;14.43;100.00;98407.63;4976311;28;45242;-84
2023/10/21 03:48:32;;;;;;;;;1.67;1.00;;;;;14.26;100.00;98400.63;4981872;28;45467;-83
2023/10/21 03:51:05;;;;;;;;;0.00;0.00;;;;;14.20;100.00;98396.28;4962719;28;45443;-82
2023/10/21 03:53:32;;;;;;;;;1.00;0.00;;;;;14.36;100.00;98437.50;4976695;28;45901;-83
2023/10/21 03:55:58;;;;;;;;;2.00;0.67;;;;;14.28;100.00;98426.00;4978386;28;45475;-83
2023/10/21 03:58:24;;;;;;;;;0.33;0.00;;;;;14.26;100.00;98421.88;4969453;28;45425;-83
2023/10/21 04:00:50;;;;;;;;;2.00;1.00;;;;;14.19;100.00;98424.13;4967818;28;46067;-81
2023/10/21 04:03:16;;;;;;;;;0.00;0.00;;;;;14.32;100.00;98434.47;4959683;28;45876;-85
2023/10/21 04:05:42;;;;;;;;;1.00;0.00;;;;;14.22;100.00;98438.19;4968895;28;45513;-85
2023/10/21 04:08:07;;;;;;;;;4.33;0.00;;;;;14.30;100.00;98451.31;4963515;28;45642;-85
2023/10/21 04:10:36;;;;;;;;;0.00;0.00;;;;;14.14;100.00;98441.53;4961865;28;45851;-85
2023/10/21 04:13:01;;;;;;;;;1.00;0.00;;;;;14.19;100.00;98457.22;4963888;28;45623;-82
2023/10/21 04:15:31;;;;;;;;;0.00;0.00;;;;;14.14;100.00;98460.84;4957305;28;47359;-82
2023/10/21 04:17:56;;;;;;;;;0.67;0.00;;;;;14.01;100.00;98465.09;4963857;28;45864;-84
2023/10/21 04:20:22;;;;;;;;;2.67;0.00;;;;;14.06;100.00;98473.31;4988257;28;45373;-85
2023/10/21 04:22:48;;;;;;;;;1.00;1.00;;;;;13.90;100.00;98445.03;4990444;28;45484;-86
2023/10/21 04:25:13;;;;;;;;;0.67;0.00;;;;;14.00;100.00;98479.16;4982767;28;45804;-84
2023/10/21 04:27:40;;;;;;;;;1.00;0.00;;;;;14.02;100.00;98493.47;4980773;28;45450;-85
2023/10/21 04:30:10;;;;;;;;;1.00;1.00;;;;;13.95;100.00;98478.09;4965901;28;45410;-85
2023/10/21 04:32:36;;;;;;;;;1.00;0.67;;;;;13.92;100.00;98473.16;4959554;28;45386;-83
2023/10/21 04:35:04;;;;;;;;;2.00;1.00;;;;;13.84;100.00;98464.66;4946645;28;47270;-81
2023/10/21 04:37:31;;;;;;;;;1.67;1.67;;;;;14.11;100.00;98502.75;4977639;28;45652;-83
2023/10/21 04:39:57;;;;;;;;;0.33;0.00;;;;;14.14;100.00;98504.94;4965217;28;44803;-86
2023/10/21 04:42:23;;;;;;;;;0.00;0.00;;;;;13.98;100.00;98467.59;4981853;28;45354;-88
2023/10/21 04:44:49;;;;;;;;;1.00;1.00;;;;;14.24;100.00;98504.06;4956131;28;46746;-86
2023/10/21 04:47:15;;;;;;;;;0.00;0.00;;;;;14.19;100.00;98493.91;4964254;28;45742;-83
2023/10/21 04:49:44;;;;;;;;;1.00;1.00;;;;;14.29;100.00;98510.31;4956000;28;45414;-83
2023/10/21 04:52:16;;;;;;;;;1.00;0.00;;;;;14.28;100.00;98502.34;4976147;28;45568;-82
2023/10/21 04:54:42;;;;;;;;;1.00;0.00;;;;;14.41;100.00;98528.44;4950366;28;47233;-83
2023/10/21 04:57:09;;;;;;;;;3.33;0.00;;;;;14.17;100.00;98485.06;4970642;28;45912;-80
2023/10/21 04:59:35;;;;;;;;;0.67;0.67;;;;;14.22;100.00;98492.47;4953152;28;45822;-85
2023/10/21 05:02:01;;;;;;;;;0.67;0.00;;;;;14.44;100.00;98519.59;4983298;28;45433;-84
2023/10/21 05:04:26;;;;;;;;;0.00;0.00;;;;;14.44;100.00;98523.16;4964893;28;47075;-84
2023/10/21 05:06:52;;;;;;;;;1.33;0.00;;;;;14.55;100.00;98540.47;4965483;28;45513;-84
2023/10/21 05:09:18;;;;;;;;;2.00;0.00;;;;;14.47;100.00;98538.31;4975523;28;45420;-85
2023/10/21 05:11:43;;;;;;;;;0.00;0.00;;;;;14.56;100.00;98547.59;4956982;28;45480;-83
2023/10/21 05:14:12;;;;;;;;;0.00;0.00;;;;;14.59;100.00;98547.03;4972447;28;45994;-83
2023/10/21 05:16:38;;;;;;;;;0.00;0.00;;;;;14.62;100.00;98552.00;4954613;28;45747;-83
2023/10/21 05:19:04;;;;;;;;;0.33;0.33;;;;;14.60;100.00;98553.38;4977686;28;45901;-83
2023/10/21 05:21:31;;;;;;;;;2.00;0.00;;;;;14.39;100.00;98536.19;4959728;28;46103;-82
2023/10/21 05:23:57;;;;;;;;;0.33;0.33;;;;;14.19;100.00;98512.34;4974903;28;45243;-83
2023/10/21 05:26:22;;;;;;;;;2.00;1.00;;;;;14.26;100.00;98555.00;4967893;28;45532;-84
2023/10/21 05:28:48;;;;;;;;;0.00;0.00;;;;;14.11;100.00;98541.34;4952554;28;45465;-82
2023/10/21 05:31:14;;;;;;;;;0.00;0.00;;;;;14.08;100.00;98550.19;4962461;28;45940;-83
2023/10/21 05:33:40;;;;;;;;;0.00;0.00;;;;;13.86;100.00;98529.41;4969135;28;45608;-84
2023/10/21 05:36:06;;;;;;;;;3.00;1.00;;;;;13.76;100.00;98534.97;4965739;28;45388;-83
2023/10/21 05:38:32;;;;;;;;;0.00;0.00;;;;;13.94;100.00;98566.56;4952110;28;46554;-82
2023/10/21 05:40:58;;;;;;;;;2.00;0.00;;;;;13.83;100.00;98563.03;4974317;28;45396;-81
2023/10/21 05:43:23;;;;;;;;;2.67;0.00;;;;;13.73;100.00;98552.06;4954042;28;46254;-82
2023/10/21 05:45:49;;;;;;;;;0.00;0.00;;;;;13.90;100.00;98580.06;4946556;28;45421;-82
2023/10/21 05:48:15;;;;;;;;;3.00;0.33;;;;;13.78;100.00;98544.59;4964272;28;45856;-80
2023/10/21 05:50:40;;;;;;;;;2.00;0.00;;;;;13.76;100.00;98543.25;4962316;28;45809;-82
2023/10/21 05:53:06;;;;;;;;;1.67;1.00;;;;;13.90;100.00;98574.53;4965518;28;46032;-85
2023/10/21 05:55:32;;;;;;;;;0.00;0.00;;;;;13.70;100.00;98547.13;4957857;28;45739;-83
2023/10/21 05:57:58;;;;;;;;;0.67;0.00;;;;;13.85;100.00;98579.28;4958772;28;45958;-85
2023/10/21 06:00:24;;;;;;;;;4.00;0.00;;;;;13.63;100.00;98541.09;4969537;28;46740;-86
2023/10/21 06:02:50;;;;;;;;;2.00;0.00;;;;;13.61;100.00;98552.41;4963086;28;45908;-84
2023/10/21 06:05:15;;;;;;;;;1.67;0.33;;;;;13.68;100.00;98568.63;4959523;28;45881;-85
2023/10/21 06:07:44;;;;;;;;;0.00;0.00;;;;;13.53;100.00;98537.31;4965787;28;46094;-82
2023/10/21 06:10:09;;;;;;;;;2.00;1.00;;;;;13.45;100.00;98553.59;4965151;28;45710;-83
2023/10/21 06:12:35;;;;;;;;;1.00;1.00;;;;;13.56;100.00;98561.53;4973007;28;45537;-85
2023/10/21 06:15:02;;;;;;;;;1.00;1.00;;;;;13.38;100.00;98540.94;4961261;28;45267;-85
2023/10/21 06:17:27;;;;;;;;;4.00;1.00;;;;;13.36;100.00;98542.34;4957699;28;45358;-85
2023/10/21 06:19:58;;;;;;;;;0.00;0.00;;;;;13.66;100.00;98584.59;4985199;28;45745;-83
2023/10/21 06:22:23;;;;;;;;;2.00;0.00;;;;;13.27;100.00;98528.28;4972247;28;45766;-83
2023/10/21 06:24:49;;;;;;;;;1.00;1.00;;;;;13.68;100.00;98585.13;4973936;28;45508;-85
2023/10/21 06:27:45;;;;;;;;;2.67;0.33;;;;;13.77;100.00;98591.69;4958998;28;45620;-85
2023/10/21 06:30:11;;;;;;;;;0.00;0.00;;;;;13.68;100.00;98579.63;4967997;28;45824;-86
2023/10/21 06:32:38;;;;;;;;;2.67;0.67;;;;;13.78;100.00;98588.66;4966659;28;47077;-87
2023/10/21 06:35:04;;;;;;;;;4.00;3.00;;;;;13.95;100.00;98618.63;4965668;28;45512;-87
2023/10/21 06:37:31;;;;;;;;;2.33;0.67;;;;;13.79;100.00;98570.22;4962077;28;45440;-83
2023/10/21 06:39:56;;;;;;;;;1.00;1.00;;;;;13.83;100.00;98574.06;4957649;28;45546;-81
2023/10/21 06:42:22;;;;;;;;;3.67;0.00;;;;;14.08;100.00;98599.81;4958357;28;46867;-86
2023/10/21 06:44:47;;;;;;;;;1.00;0.00;;;;;14.11;100.00;98597.28;4960521;28;45984;-83
2023/10/21 06:47:13;;;;;;;;;1.67;1.67;;;;;14.08;100.00;98577.75;4945543;28;45702;-81
2023/10/21 06:49:39;;;;;;;;;3.00;1.00;;;;;14.30;100.00;98608.47;4948785;28;46130;-81
2023/10/21 06:52:04;;;;;;;;;3.67;1.00;;;;;14.54;100.00;98640.06;4977068;28;46288;-82
2023/10/21 06:54:30;;;;;;;;;6.00;2.33;;;;;14.70;100.00;98630.56;4960457;28;45774;-84
2023/10/21 06:56:55;;;;;;;;;3.00;1.33;;;;;14.82;100.00;98630.19;4959839;28;45563;-83
2023/10/21 06:59:21;;;;;;;;;1.33;1.33;;;;;14.93;100.00;98642.78;4956549;28;45425;-84
2023/10/21 07:01:46;;;;;;;;;1.67;1.00;;;;;14.91;100.00;98636.75;4955441;28;47209;-83
2023/10/21 07:04:13;;;;;;;;;1.00;1.00;;;;;14.96;100.00;98628.41;4959963;28;45881;-82
2023/10/21 07:06:40;;;;;;;;;1.33;0.33;;;;;14.82;100.00;98624.69;4952684;28;45830;-83
2023/10/21 07:09:06;;;;;;;;;5.33;3.00;;;;;14.90;100.00;98653.59;4953152;28;45534;-84
2023/10/21 07:11:33;;;;;;;;;6.00;2.00;;;;;14.64;100.00;98637.22;4947417;28;47815;-80
2023/10/21 07:13:58;;;;;;;;;1.67;0.00;;;;;14.67;100.00;98641.34;4955773;28;45835;-82
2023/10/21 07:16:24;;;;;;;;;1.33;1.33;;;;;14.79;100.00;98674.91;4980618;28;45508;-81
2023/10/21 07:18:49;;;;;;;;;0.67;0.67;;;;;14.70;100.00;98654.56;4945352;28;45852;-80
2023/10/21 07:21:16;;;;;;;;;3.33;0.00;;;;;14.90;100.00;98683.94;4971196;28;45618;-82
2023/10/21 07:23:41;;;;;;;;;1.00;1.00;;;;;14.99;100.00;98683.03;4957139;28;45856;-82
2023/10/21 07:26:07;;;;;;;;;3.00;3.00;;;;;15.12;100.00;98686.22;4978873;28;45484;-82
2023/10/21 07:28:35;;;;;;;;;3.00;1.00;;;;;15.11;100.00;98685.41;4966955;28;46091;-82
2023/10/21 07:31:01;;;;;;;;;1.00;0.67;;;;;15.11;100.00;98679.88;4961942;28;45509;-81
2023/10/21 07:33:27;;;;;;;;;5.00;1.00;;;;;15.08;100.00;98669.44;4970942;28;45775;-82
2023/10/21 07:35:55;;;;;;;;;1.00;1.00;;;;;15.07;100.00;98662.25;4971455;28;45568;-86
2023/10/21 07:38:21;;;;;;;;;1.33;1.00;;;;;15.20;100.00;98665.47;4974243;28;45429;-83
2023/10/21 07:40:47;;;;;;;;;0.33;0.00;;;;;15.42;100.00;98695.34;4952031;28;46162;-81
2023/10/21 07:43:13;;;;;;;;;2.67;1.33;;;;;15.48;100.00;98697.78;4941953;28;45513;-82
2023/10/21 07:45:42;;;;;;;;;3.67;1.00;;;;;15.40;100.00;98697.56;4945866;28;45842;-83
2023/10/21 07:48:07;;;;;;;;;3.33;0.33;;;;;15.21;100.00;98679.00;4973619;28;47372;-83
2023/10/21 07:50:33;;;;;;;;;1.00;1.00;;;;;15.43;100.00;98694.22;4950453;28;47469;-82
2023/10/21 07:52:59;;;;;;;;;2.67;1.00;;;;;15.44;100.00;98707.75;4964836;28;46030;-82
2023/10/21 07:55:24;;;;;;;;;1.00;0.00;;;;;15.49;100.00;98716.00;4975754;28;45467;-83
2023/10/21 07:57:50;;;;;;;;;5.00;1.33;;;;;15.42;100.00;98689.81;4955416;28;45812;-82
2023/10/21 08:00:15;;;;;;;;;3.67;2.00;;;;;15.55;100.00;98722.28;4973810;28;46610;-82
2023/10/21 08:02:44;;;;;;;;;3.00;2.00;;;;;15.37;100.00;98679.66;4973577;28;45460;-83
2023/10/21 08:05:10;;;;;;;;;6.67;2.00;;;;;15.64;100.00;98698.44;4956969;28;45471;-82
2023/10/21 08:07:36;;;;;;;;;4.00;2.33;;;;;15.97;100.00;98715.25;4967399;28;46047;-83
2023/10/21 08:10:05;;;;;;;;;2.33;2.00;;;;;16.19;100.00;98717.44;4960465;28;47660;-82
2023/10/21 08:12:34;;;;;;;;;3.00;2.00;;;;;16.42;100.00;98701.09;4965769;28;45785;-81
2023/10/21 08:15:07;;;;;;;;;2.00;1.67;;;;;16.55;100.00;98713.38;4966872;28;45393;-82
2023/10/21 08:17:36;;;;;;;;;2.67;1.00;;;;;16.84;100.00;98710.47;4967105;28;45709;-84
2023/10/21 08:20:03;;;;;;;;;3.00;1.67;;;;;17.02;100.00;98707.97;4955641;28;47300;-82
2023/10/21 08:22:28;;;;;;;;;4.33;1.00;;;;;17.25;100.00;98695.16;4953112;28;45857;-82
2023/10/21 08:24:54;;;;;;;;;0.00;0.00;;;;;17.47;100.00;98722.19;4968965;28;46165;-84
2023/10/21 08:27:19;;;;;;;;;1.00;1.00;;;;;17.48;100.00;98707.19;4960668;28;45825;-84
2023/10/21 08:29:45;;;;;;;;;3.00;0.67;;;;;17.47;100.00;98725.78;4956859;28;45596;-84
2023/10/21 08:32:11;;;;;;;;;0.00;0.00;;;;;17.20;100.00;98695.22;4959071;28;45508;-83
2023/10/21 08:34:59;;;;;;;;;2.67;2.00;;;;;17.34;100.00;98737.66;4961816;28;45807;-84
2023/10/21 08:37:25;;;;;;;;;4.67;1.00;;;;;17.24;100.00;98737.81;4958350;28;45458;-84
2023/10/21 08:39:50;;;;;;;;;5.00;1.00;;;;;17.16;100.00;98732.97;4962356;28;46212;-83
2023/10/21 08:42:25;;;;;;;;;2.33;1.00;;;;;17.14;100.00;98719.44;4963425;28;45803;-85
2023/10/21 08:44:52;;;;;;;;;1.33;1.33;;;;;17.26;100.00;98730.00;4969000;28;45495;-85
2023/10/21 08:47:19;;;;;;;;;1.33;1.33;;;;;17.43;100.00;98738.59;4967503;28;45552;-82
2023/10/21 08:49:48;;;;;;;;;1.75;0.75;;;;;17.43;100.00;98707.28;4966066;28;46489;-82
2023/10/21 08:52:14;;;;;;;;;3.00;2.00;;;;;17.60;100.00;98712.25;4956660;28;45477;-83
2023/10/21 08:54:50;;;;;;;;;0.00;0.00;;;;;17.73;100.00;98724.50;4962541;28;45989;-82
2023/10/21 08:57:17;;;;;;;;;3.50;1.00;;;;;17.68;100.00;98719.03;4955494;28;46103;-84
2023/10/21 08:59:43;;;;;;;;;1.67;1.67;;;;;17.63;100.00;98712.47;4968535;28;45558;-83
2023/10/21 09:02:08;;;;;;;;;3.00;1.67;;;;;17.62;100.00;98733.00;4969011;28;45580;-85
2023/10/21 09:04:34;;;;;;;;;2.00;1.00;;;;;17.32;100.00;98720.50;4966165;28;45607;-82
2023/10/21 09:07:00;;;;;;;;;2.00;1.00;;;;;17.34;100.00;98743.19;4962583;28;45856;-83
2023/10/21 09:09:29;;;;;;;;;3.75;0.00;;;;;17.20;100.00;98756.16;4949182;28;47314;-85
2023/10/21 09:12:09;;;;;;;;;2.67;1.33;;;;;16.96;100.00;98740.50;4958782;28;45513;-81
2023/10/21 09:14:52;;;;;;;;;2.67;0.67;;;;;17.07;100.00;98755.00;4951184;28;45929;-83
2023/10/21 09:17:19;;;;;;;;;3.00;1.00;;;;;16.85;100.00;98708.50;4958906;28;46201;-83
2023/10/21 09:19:49;;;;;;;;;3.67;1.00;;;;;17.10;100.00;98749.66;4951415;28;47373;-80
2023/10/21 09:22:27;;;;;;;;;3.00;0.00;;;;;17.13;100.00;98750.19;4960083;28;45898;-78
2023/10/21 09:25:14;;;;;;;;;3.67;0.67;;;;;17.14;100.00;98749.91;4962515;28;46322;-79
2023/10/21 09:27:41;;;;;;;;;1.00;0.33;;;;;17.11;100.00;98742.16;4951525;28;45618;-82
2023/10/21 09:30:07;;;;;;;;;1.00;0.00;;;;;17.30;100.00;98764.31;4950740;28;48111;-83
2023/10/21 09:32:33;;;;;;;;;1.00;1.00;;;;;17.41;100.00;98776.88;4964375;28;45756;-80
2023/10/21 09:35:23;;;;;;;;;1.33;0.67;;;;;17.26;100.00;98774.34;4943577;28;45752;-81
2023/10/21 09:37:50;;;;;;;;;2.00;1.00;;;;;17.36;100.00;98765.84;4953345;28;45927;-81
2023/10/21 09:40:16;;;;;;;;;3.00;1.00;;;;;17.45;100.00;98741.91;4968144;28;45973;-81
2023/10/21 09:42:42;;;;;;;;;2.00;1.00;;;;;17.44;100.00;98723.63;4968122;28;45943;-81
2023/10/21 09:45:10;;;;;;;;;3.33;1.00;;;;;17.74;100.00;98763.00;4964370;28;46315;-84
2023/10/21 09:47:39;;;;;;;;;1.00;1.00;;;;;17.69;100.00;98751.16;4952297;28;46199;-81
2023/10/21 09:50:10;;;;;;;;;0.67;0.67;;;;;17.78;100.00;98764.03;4959309;28;46344;-83
2023/10/21 09:52:56;;;;;;;;;4.00;2.00;;;;;17.63;100.00;98764.28;4956490;28;46137;-79
2023/10/21 09:55:25;;;;;;;;;0.67;0.00;;;;;17.64;100.00;98782.59;4963479;28;45756;-81
2023/10/21 09:57:57;;;;;;;;;2.33;1.00;;;;;17.60;100.00;98778.75;4951963;28;45470;-83
2023/10/21 10:00:46;;;;;;;;;1.00;0.00;;;;;17.51;100.00;98777.81;4977098;28;45585;-80
2023/10/21 10:03:14;;;;;;;;;2.00;0.67;;;;;17.40;100.00;98774.41;4953549;28;45930;-78
2023/10/21 10:05:41;;;;;;;;;3.00;0.00;;;;;17.40;100.00;98780.75;4965935;28;45568;-77
2023/10/21 10:08:07;;;;;;;;;1.33;1.33;;;;;17.33;100.00;98769.25;4959162;28;45558;-78
2023/10/21 10:10:34;;;;;;;;;1.00;0.00;;;;;17.39;100.00;98773.56;4948551;28;46031;-77
2023/10/21 10:13:06;;;;;;;;;1.67;1.67;;;;;17.37;100.00;98769.47;4947988;28;45946;-79
2023/10/21 10:15:39;;;;;;;;;3.00;1.00;;;;;17.42;100.00;98777.69;4957607;28;45545;-79
2023/10/21 10:18:08;;;;;;;;;0.75;0.75;;;;;17.40;100.00;98769.69;4948743;28;47263;-79
2023/10/21 10:20:34;;;;;;;;;2.67;1.33;;;;;17.29;100.00;98763.50;4956436;28;46740;-78
2023/10/21 10:23:17;;;;;;;;;0.00;0.00;;;;;17.47;100.00;98767.34;4958388;28;45652;-78
2023/10/21 10:25:49;;;;;;;;;2.00;1.00;;;;;17.67;100.00;98757.03;4968699;28;45600;-83
2023/10/21 10:28:25;;;;;;;;;3.00;1.33;;;;;17.97;100.00;98757.59;4980445;28;45135;-82
2023/10/21 10:30:53;;;;;;;;;1.33;1.00;;;;;18.26;100.00;98748.16;4953270;28;46205;-83
2023/10/21 10:33:22;;;;;;;;;3.33;1.33;;;;;18.58;100.00;98758.31;4968841;28;45792;-82
2023/10/21 10:35:51;;;;;;;;;2.33;1.33;;;;;19.13;100.00;98748.19;4937085;28;45893;-82
2023/10/21 10:38:34;;;;;;;;;3.67;1.00;;;;;19.54;100.00;98775.78;4964105;28;45457;-84
2023/10/21 10:41:06;;;;;;;;;5.67;2.00;;;;;19.64;100.00;98773.88;4949595;28;46923;-85
2023/10/21 10:43:32;;;;;;;;;0.33;0.33;;;;;19.51;100.00;98740.28;4955573;28;45568;-85
2023/10/21 10:46:00;;;;;;;;;2.00;1.67;;;;;19.19;100.00;98752.47;4969884;28;46147;-84
2023/10/21 10:48:26;;;;;;;;;2.50;1.00;;;;;19.14;100.00;98792.31;4954635;28;46203;-84
2023/10/21 10:50:57;;;;;;;;;1.00;1.00;;;;;18.81;100.00;98756.38;4961420;28;45948;-85
2023/10/21 10:53:23;;;;;;;;;3.67;1.33;;;;;18.84;100.00;98788.28;4952200;28;46285;-84
2023/10/21 10:55:54;;;;;;;;;5.33;2.00;;;;;18.66;100.00;98781.72;4960862;28;45547;-86
2023/10/21 10:58:21;;;;;;;;;1.67;1.00;;;;;18.66;100.00;98809.50;4951993;28;46658;-84
2023/10/21 11:00:48;;;;;;;;;1.00;1.00;;;;;18.52;100.00;98782.56;4947654;28;46307;-85
2023/10/21 11:03:27;;;;;;;;;1.00;1.00;;;;;17.97;100.00;98718.78;4953294;28;46057;-82
2023/10/21 11:05:58;;;;;;;;;0.75;0.75;;;;;18.35;100.00;98793.47;4974034;28;44925;-86
2023/10/21 11:08:32;;;;;;;;;4.00;1.33;;;;;18.36;100.00;98772.91;4946683;28;45993;-88
2023/10/21 11:11:05;;;;;;;;;1.25;0.50;;;;;18.57;100.00;98776.09;4965724;28;47834;-84
2023/10/21 11:13:34;;;;;;;;;1.00;1.00;;;;;18.46;100.00;98758.03;4941558;28;45852;-89
2023/10/21 11:16:00;;;;;;;;;5.00;2.67;;;;;18.46;100.00;98758.84;4960981;28;45415;-86
2023/10/21 11:18:26;;;;;;;;;6.33;3.33;;;;;18.26;100.00;98728.72;4961736;28;47112;-86
2023/10/21 11:20:54;;;;;;;;;9.33;6.33;;;;;18.59;100.00;98796.00;4964060;28;46775;-87
2023/10/21 11:23:28;;;;;;;;;2.33;2.33;;;;;18.42;100.00;98782.78;4974266;28;45532;-87
2023/10/21 11:25:56;;;;;;;;;5.67;3.00;;;;;17.80;100.00;98720.19;4993748;28;45601;-83